Time,TemperatureF,DewpointF,PressureIn,WindDirection,WindDirectionDegrees,WindSpeedMPH,WindSpeedGustMPH,Humidity,HourlyPrecipIn,Conditions,Clouds,dailyrainin,SoftwareType,DateUTC
2013-03-06 00:14:00,20.4,18.0,30.39,North,350,16.0,21.0,91,0.00,,,0.00,weatherlink.com 1.10,2013-03-06 06:14:00,
2013-03-06 00:29:00,20.4,18.0,30.40,NW,326,10.0,23.0,91,0.00,,,0.00,weatherlink.com 1.10,2013-03-06 06:29:00,
2013-03-06 00:44:00,20.3,18.0,30.41,NNW,331,12.0,19.0,91,0.00,,,0.00,weatherlink.com 1.10,2013-03-06 06:44:00,
2013-03-06 00:59:00,20.2,18.0,30.41,NW,304,15.0,18.0,91,0.00,,,0.00,weatherlink.com 1.10,2013-03-06 06:59:00,
2013-03-06 01:14:00,20.1,18.0,30.42,NNW,333,17.0,20.0,91,0.00,,,0.00,weatherlink.com 1.10,2013-03-06 07:14:00,
2013-03-06 01:29:00,20.0,18.0,30.42,NE,36,12.0,19.0,91,0.00,,,0.00,weatherlink.com 1.10,2013-03-06 07:29:00,
2013-03-06 01:44:00,19.9,18.0,30.43,NNW,332,11.0,17.0,91,0.00,,,0.00,weatherlink.com 1.10,2013-03-06 07:44:00,
2013-03-06 01:59:00,19.9,18.0,30.44,NNW,342,9.0,17.0,91,0.00,,,0.00,weatherlink.com 1.10,2013-03-06 07:59:00,
2013-03-06 02:14:00,19.8,18.0,30.44,ENE,70,13.0,17.0,91,0.00,,,0.00,weatherlink.com 1.10,2013-03-06 08:14:00,
2013-03-06 02:29:00,19.8,18.0,30.44,NW,323,8.0,18.0,91,0.00,,,0.00,weatherlink.com 1.10,2013-03-06 08:29:00,
2013-03-06 02:44:00,19.6,17.0,30.43,NW,319,9.0,17.0,91,0.00,,,0.00,weatherlink.com 1.10,2013-03-06 08:44:00,
2013-03-06 02:59:00,19.6,17.0,30.43,NW,309,9.0,14.0,91,0.00,,,0.00,weatherlink.com 1.10,2013-03-06 08:59:00,
2013-03-06 03:14:00,19.5,18.0,30.44,NNW,331,18.0,18.0,92,0.00,,,0.00,weatherlink.com 1.10,2013-03-06 09:14:00,
2013-03-06 03:29:00,19.4,17.0,30.43,North,350,16.0,20.0,91,0.00,,,0.00,weatherlink.com 1.10,2013-03-06 09:29:00,
2013-03-06 03:44:00,19.3,17.0,30.44,NE,50,8.0,16.0,92,0.00,,,0.00,weatherlink.com 1.10,2013-03-06 09:44:00,
2013-03-06 03:59:00,19.1,17.0,30.44,NW,307,10.0,16.0,92,0.00,,,0.00,weatherlink.com 1.10,2013-03-06 09:59:00,
2013-03-06 04:14:00,19.0,17.0,30.44,NW,314,13.0,20.0,92,0.00,,,0.00,weatherlink.com 1.10,2013-03-06 10:14:00,
2013-03-06 04:29:00,18.9,17.0,30.44,NNW,331,10.0,19.0,92,0.00,,,0.00,weatherlink.com 1.10,2013-03-06 10:29:00,
2013-03-06 04:44:00,18.9,17.0,30.44,NW,321,9.0,18.0,92,0.00,,,0.00,weatherlink.com 1.10,2013-03-06 10:44:00,
2013-03-06 04:59:00,18.8,17.0,30.45,North,357,9.0,15.0,92,0.00,,,0.00,weatherlink.com 1.10,2013-03-06 10:59:00,
2013-03-06 05:14:00,18.6,17.0,30.46,NW,304,12.0,12.0,92,0.00,,,0.00,weatherlink.com 1.10,2013-03-06 11:14:00,
2013-03-06 05:29:00,18.6,17.0,30.46,NW,313,3.0,11.0,92,0.00,,,0.00,weatherlink.com 1.10,2013-03-06 11:29:00,
2013-03-06 05:44:00,18.5,17.0,30.46,NW,326,7.0,13.0,92,0.00,,,0.00,weatherlink.com 1.10,2013-03-06 11:44:00,
2013-03-06 05:59:00,18.3,16.0,30.46,NW,304,10.0,14.0,91,0.00,,,0.00,weatherlink.com 1.10,2013-03-06 11:59:00,
2013-03-06 06:14:00,18.3,16.0,30.46,NNW,331,11.0,14.0,92,0.00,,,0.00,weatherlink.com 1.10,2013-03-06 12:14:00,
2013-03-06 06:30:00,18.2,16.0,30.46,NNE,14,7.0,15.0,92,0.00,,,0.00,weatherlink.com 1.10,2013-03-06 12:30:00,
2013-03-06 06:45:00,18.2,16.0,30.46,NW,322,5.0,13.0,92,0.00,,,0.00,weatherlink.com 1.10,2013-03-06 12:45:00,
2013-03-06 07:00:00,18.1,16.0,30.46,NW,318,4.0,12.0,92,0.00,,,0.00,weatherlink.com 1.10,2013-03-06 13:00:00,
2013-03-06 07:15:00,18.1,16.0,30.46,NNW,331,7.0,12.0,93,0.00,,,0.00,weatherlink.com 1.10,2013-03-06 13:15:00,
2013-03-06 07:30:00,17.8,16.0,30.46,North,358,7.0,14.0,92,0.00,,,0.00,weatherlink.com 1.10,2013-03-06 13:30:00,
2013-03-06 07:45:00,17.6,16.0,30.47,North,5,8.0,12.0,93,0.00,,,0.00,weatherlink.com 1.10,2013-03-06 13:45:00,
2013-03-06 08:00:00,17.7,16.0,30.48,NNW,328,4.0,12.0,93,0.00,,,0.00,weatherlink.com 1.10,2013-03-06 14:00:00,
2013-03-06 08:15:00,18.1,16.0,30.48,WNW,300,10.0,12.0,93,0.00,,,0.00,weatherlink.com 1.10,2013-03-06 14:15:00,
2013-03-06 08:30:00,17.6,16.0,30.48,ENE,71,7.0,12.0,93,0.00,,,0.00,weatherlink.com 1.10,2013-03-06 14:30:00,
2013-03-06 08:45:00,17.9,16.0,30.48,NNW,327,6.0,12.0,92,0.00,,,0.00,weatherlink.com 1.10,2013-03-06 14:45:00,
2013-03-06 09:00:00,18.3,17.0,30.48,NNW,328,4.0,10.0,93,0.00,,,0.00,weatherlink.com 1.10,2013-03-06 15:00:00,
2013-03-06 09:15:00,18.5,17.0,30.48,NNW,343,10.0,11.0,92,0.00,,,0.00,weatherlink.com 1.10,2013-03-06 15:15:00,
2013-03-06 09:30:00,18.3,16.0,30.49,North,357,11.0,12.0,91,0.00,,,0.00,weatherlink.com 1.10,2013-03-06 15:30:00,
2013-03-06 09:45:00,18.9,17.0,30.49,North,352,10.0,10.0,92,0.00,,,0.00,weatherlink.com 1.10,2013-03-06 15:45:00,
2013-03-06 10:00:00,19.1,17.0,30.48,NNW,327,6.0,8.0,91,0.00,,,0.00,weatherlink.com 1.10,2013-03-06 16:00:00,
2013-03-06 10:15:00,19.1,17.0,30.48,NE,53,3.0,10.0,90,0.00,,,0.00,weatherlink.com 1.10,2013-03-06 16:15:00,
2013-03-06 10:30:00,19.3,17.0,30.48,North,1,5.0,10.0,90,0.00,,,0.00,weatherlink.com 1.10,2013-03-06 16:30:00,
2013-03-06 10:45:00,19.3,17.0,30.48,NE,44,6.0,9.0,91,0.00,,,0.00,weatherlink.com 1.10,2013-03-06 16:45:00,
2013-03-06 11:00:00,19.4,17.0,30.48,North,8,7.0,10.0,91,0.00,,,0.00,weatherlink.com 1.10,2013-03-06 17:00:00,
2013-03-06 11:15:00,20.4,18.0,30.48,North,351,7.0,8.0,90,0.00,,,0.00,weatherlink.com 1.10,2013-03-06 17:15:00,
2013-03-06 11:30:00,20.9,18.0,30.48,NE,38,4.0,8.0,88,0.00,,,0.00,weatherlink.com 1.10,2013-03-06 17:30:00,
2013-03-06 11:45:00,21.4,19.0,30.47,NE,43,1.0,4.0,89,0.00,,,0.00,weatherlink.com 1.10,2013-03-06 17:45:00,
2013-03-06 12:00:00,22.3,19.0,30.46,East,96,3.0,5.0,87,0.00,,,0.00,weatherlink.com 1.10,2013-03-06 18:00:00,
2013-03-06 12:15:00,22.2,19.0,30.46,NE,43,5.0,6.0,87,0.00,,,0.00,weatherlink.com 1.10,2013-03-06 18:15:00,
2013-03-06 12:30:00,22.2,18.0,30.46,SE,145,0.0,3.0,85,0.00,,,0.00,weatherlink.com 1.10,2013-03-06 18:30:00,
2013-03-06 12:45:00,22.0,18.0,30.46,WSW,244,4.0,4.0,85,0.00,,,0.00,weatherlink.com 1.10,2013-03-06 18:45:00,
2013-03-06 13:00:00,21.8,18.0,30.46,WNW,288,1.0,6.0,86,0.00,,,0.00,weatherlink.com 1.10,2013-03-06 19:00:00,
2013-03-06 13:15:00,21.9,18.0,30.45,West,273,3.0,6.0,85,0.00,,,0.00,weatherlink.com 1.10,2013-03-06 19:15:00,
2013-03-06 13:30:00,24.0,20.0,30.44,WSW,247,0.0,2.0,85,0.00,,,0.00,weatherlink.com 1.10,2013-03-06 19:30:00,
2013-03-06 13:45:00,24.3,20.0,30.44,WNW,294,4.0,5.0,83,0.00,,,0.00,weatherlink.com 1.10,2013-03-06 19:45:00,
2013-03-06 14:00:00,22.7,19.0,30.43,WNW,293,2.0,7.0,85,0.00,,,0.00,weatherlink.com 1.10,2013-03-06 20:00:00,
2013-03-06 14:15:00,24.0,21.0,30.43,SE,146,0.0,2.0,87,0.00,,,0.00,weatherlink.com 1.10,2013-03-06 20:15:00,
2013-03-06 14:31:00,24.7,20.0,30.42,NNW,335,3.0,3.0,83,0.00,,,0.00,weatherlink.com 1.10,2013-03-06 20:31:00,
2013-03-06 14:45:00,24.5,20.0,30.42,NW,319,2.0,4.0,82,0.00,,,0.00,weatherlink.com 1.10,2013-03-06 20:45:00,
2013-03-06 15:00:00,23.7,19.0,30.42,WNW,293,4.0,6.0,83,0.00,,,0.00,weatherlink.com 1.10,2013-03-06 21:00:00,
2013-03-06 15:15:00,23.5,19.0,30.42,SSE,157,0.0,4.0,84,0.00,,,0.00,weatherlink.com 1.10,2013-03-06 21:15:00,
2013-03-06 15:30:00,23.9,20.0,30.42,West,280,6.0,6.0,84,0.00,,,0.00,weatherlink.com 1.10,2013-03-06 21:30:00,
2013-03-06 15:45:00,23.3,20.0,30.41,WSW,249,5.0,8.0,85,0.00,,,0.00,weatherlink.com 1.10,2013-03-06 21:45:00,
2013-03-06 16:00:00,23.2,19.0,30.41,SSE,163,5.0,7.0,85,0.00,,,0.00,weatherlink.com 1.10,2013-03-06 22:00:00,
2013-03-06 16:15:00,22.7,19.0,30.41,SSW,198,3.0,7.0,85,0.00,,,0.00,weatherlink.com 1.10,2013-03-06 22:15:00,
2013-03-06 16:30:00,22.7,19.0,30.41,SSE,168,5.0,7.0,85,0.00,,,0.00,weatherlink.com 1.10,2013-03-06 22:30:00,
2013-03-06 16:36:00,22.7,19.1,30.41,SSE,158,3.0,4.0,86,0.00,,,0.00,Wunderground v.1.15,2013-03-06 22:36:00,
2013-03-06 16:41:00,22.6,18.5,30.41,ESE,111,2.0,4.0,84,0.00,,,0.00,Wunderground v.1.15,2013-03-06 22:41:00,
2013-03-06 17:01:00,22.3,19.0,30.41,ENE,64,3.0,8.0,85,0.00,,,0.00,weatherlink.com 1.10,2013-03-06 23:01:00,
2013-03-06 17:16:00,22.1,19.0,30.40,ENE,74,4.0,7.0,86,0.00,,,0.00,weatherlink.com 1.10,2013-03-06 23:16:00,
2013-03-06 17:31:00,22.1,19.0,30.40,SE,124,3.0,5.0,86,0.00,,,0.00,weatherlink.com 1.10,2013-03-06 23:31:00,
2013-03-06 17:46:00,21.9,18.0,30.39,SSW,200,1.0,5.0,86,0.00,,,0.00,weatherlink.com 1.10,2013-03-06 23:46:00,
2013-03-06 18:01:00,21.8,18.0,30.39,ESE,122,1.0,4.0,86,0.00,,,0.00,weatherlink.com 1.10,2013-03-07 00:01:00,
2013-03-06 18:16:00,21.9,19.0,30.38,East,91,3.0,8.0,87,0.00,,,0.00,weatherlink.com 1.10,2013-03-07 00:16:00,
2013-03-06 18:31:00,21.8,19.0,30.38,ESE,113,5.0,8.0,87,0.00,,,0.00,weatherlink.com 1.10,2013-03-07 00:31:00,
2013-03-06 18:46:00,21.6,18.0,30.38,ESE,106,3.0,7.0,87,0.00,,,0.00,weatherlink.com 1.10,2013-03-07 00:46:00,
2013-03-06 19:01:00,21.3,18.0,30.38,ENE,76,8.0,9.0,87,0.00,,,0.00,weatherlink.com 1.10,2013-03-07 01:01:00,
2013-03-06 19:16:00,21.3,18.0,30.38,East,90,8.0,9.0,88,0.00,,,0.00,weatherlink.com 1.10,2013-03-07 01:16:00,
2013-03-06 19:31:00,21.4,18.0,30.38,SSE,153,2.0,7.0,88,0.00,,,0.00,weatherlink.com 1.10,2013-03-07 01:31:00,
2013-03-06 19:46:00,21.3,18.0,30.38,SE,139,3.0,8.0,87,0.00,,,0.00,weatherlink.com 1.10,2013-03-07 01:46:00,
2013-03-06 20:01:00,21.5,19.0,30.38,SE,129,4.0,8.0,88,0.00,,,0.00,weatherlink.com 1.10,2013-03-07 02:01:00,
2013-03-06 20:16:00,21.7,18.0,30.37,East,92,9.0,9.0,87,0.00,,,0.00,weatherlink.com 1.10,2013-03-07 02:16:00,
2013-03-06 20:31:00,21.6,18.0,30.37,ENE,66,6.0,9.0,87,0.00,,,0.00,weatherlink.com 1.10,2013-03-07 02:31:00,
2013-03-06 20:46:00,21.2,18.0,30.37,East,87,5.0,9.0,87,0.00,,,0.00,weatherlink.com 1.10,2013-03-07 02:46:00,
2013-03-06 21:01:00,20.9,18.0,30.37,East,84,5.0,11.0,87,0.00,,,0.00,weatherlink.com 1.10,2013-03-07 03:01:00,
2013-03-06 21:16:00,20.9,18.0,30.37,SSE,154,8.0,11.0,87,0.00,,,0.00,weatherlink.com 1.10,2013-03-07 03:16:00,
2013-03-06 21:31:00,20.9,18.0,30.37,ESE,109,8.0,13.0,88,0.00,,,0.00,weatherlink.com 1.10,2013-03-07 03:31:00,
2013-03-06 21:46:00,20.9,18.0,30.38,ESE,118,4.0,7.0,88,0.00,,,0.00,weatherlink.com 1.10,2013-03-07 03:46:00,
2013-03-06 22:01:00,20.6,17.0,30.38,East,100,6.0,13.0,87,0.00,,,0.00,weatherlink.com 1.10,2013-03-07 04:01:00,
2013-03-06 22:16:00,20.5,18.0,30.38,ESE,103,8.0,12.0,88,0.00,,,0.00,weatherlink.com 1.10,2013-03-07 04:16:00,
2013-03-06 22:31:00,20.4,17.0,30.37,SE,132,7.0,8.0,88,0.00,,,0.00,weatherlink.com 1.10,2013-03-07 04:31:00,
2013-03-06 22:46:00,20.2,18.0,30.38,ESE,113,3.0,8.0,89,0.00,,,0.00,weatherlink.com 1.10,2013-03-07 04:46:00,
2013-03-06 23:01:00,20.0,17.0,30.39,SSE,149,7.0,9.0,89,0.00,,,0.00,weatherlink.com 1.10,2013-03-07 05:01:00,
2013-03-06 23:16:00,19.8,17.0,30.39,ESE,116,4.0,8.0,89,0.00,,,0.00,weatherlink.com 1.10,2013-03-07 05:16:00,
2013-03-06 23:31:00,19.7,17.0,30.39,SE,129,7.0,12.0,89,0.00,,,0.00,weatherlink.com 1.10,2013-03-07 05:31:00,
2013-03-06 23:46:00,19.5,17.0,30.39,ESE,110,8.0,12.0,90,0.00,,,0.00,weatherlink.com 1.10,2013-03-07 05:46:00,